Terminal Aerodrome Forecast
Issued by NWS

Home | Current Version | Previous Version | Text Only | Print | Product List | Glossary On
Versions: 1 2 3 4 5 6 7 8 9 10 11 12 13 14 15 16 17 18 19 20
737
FTUS45 KPIH 201120
TAFSUN
TAF
KSUN 201120Z 2012/2112 34006KT P6SM VCSH BKN020 OVC035
     FM201600 12007KT 6SM BR SCT010 BKN015
     FM202100 VRB05KT 6SM -SN SCT010 BKN015
     FM210300 VRB06KT 2SM -SN BR SCT008 BKN015
      AMD LTD TO CLD VIS AND WIND TIL 201400=

USA.gov is the U.S. government's official web portal to all federal, state and local government web resources and services.